AirNav   Air Wisconsin Up To $57,000 Bonus
 
 983 users online  

MA12 Marston Mills Seaplane Base
Marstons Mills, Massachusetts, USA

GOING TO MARSTONS MILLS?


FAA INFORMATION EFFECTIVE 07 NOVEMBER 2019

Location

FAA Identifier: MA12
Lat/Long: 41-40-08.4000N 070-25-03.1000W
41-40.140000N 070-25.051667W
41.6690000,-70.4175278
(estimated)
Elevation: 44 ft. / 13 m (estimated)
Variation: 16W (1990)
From city: 1 mile N of MARSTONS MILLS, MA
Time zone: UTC -5 (UTC -4 during Daylight Saving Time)
Zip code: 02648

Seaplane Base Operations

Seaplane Base use: Private use. Permission required prior to landing
Activation date: 10/1994
Control tower: no
ARTCC: BOSTON CENTER
FSS: BRIDGEPORT FLIGHT SERVICE STATION
Attendance: UNATNDD
Segmented circle: no

Seaplane Base Communications

WX ASOS at HYA (6 nm E): PHONE 508-862-2601
WX ASOS at MVY (19 nm SW): 126.25 (508-696-6988)
WX ASOS at CQX (19 nm E): 135.875 (508-945-5034)
WX ASOS at PYM (20 nm NW): 135.625 (508-746-8003)

Nearby radio navigation aids

VOR radial/distance  VOR name  Freq  Var
MVYr043/18.6MARTHAS VINEYARD VOR/DME114.5015W
LFVr235/26.9MARCONI VOR/DME114.7016W
ACKr338/29.1NANTUCKET VOR/DME116.2015W

 
NDB name  Hdg/Dist  Freq  Var  ID
NAUSET282/19.327916WCQX -.-. --.- -..-
PROVINCETOWN216/25.538916WPVC .--. ...- -.-.
MARSHFIELD172/28.236816WIMR .. -- .-.
TAUNTON131/29.522716WTAN - .- -.

Seaplane Base Services

Runway Information

Runway 7W/25W

Dimensions: 3600 x 200 ft. / 1097 x 61 m
Surface: water
RUNWAY 7W  RUNWAY 25W
Traffic pattern: rightleft
Obstructions: 75 ft. trees75 ft. trees

Runway 17W/35W

Dimensions: 1500 x 200 ft. / 457 x 61 m
Surface: water
RUNWAY 17W  RUNWAY 35W
Traffic pattern: leftleft
Obstructions: 75 ft. trees75 ft. trees

Seaplane Base Ownership and Management from official FAA records

Ownership: Privately-owned
Owner: W. SCOTT LAFORGE
24 FLUME AVE
MARSTONS MILLS, MA 02648
Phone 508-428-8148
Manager: W. SCOTT LAFORGE
24 FLUME AVE
MARSTONS MILLS, MA 02648
Phone 508-428-8148

Seaplane Base Operational Statistics

Aircraft based on the field: 1
Single engine airplanes: 1
    

Additional Remarks

OWNER DESIRES ARPT NOT BE CHARTED.
FOR CD CTC BOSTON APCH AT 603-594-5551, WHEN APCH CLSD CTC BOSTON ARTCC AT 603-879-6859..

Instrument Procedures

There are no published instrument procedures at MA12.

Some nearby airports with instrument procedures:

KFMH - Cape Cod Coast Guard Air Station (5 nm W)
KHYA - Barnstable Municipal Airport-Boardman/Polando Field (6 nm E)
KMVY - Martha's Vineyard Airport (19 nm SW)
KCQX - Chatham Municipal Airport (19 nm E)
KPYM - Plymouth Municipal Airport (20 nm NW)
 
Loc | Ops | Rwys | IFR | FBO | Links
Com | Nav | Svcs | Stats | Notes
Area around MA12 (Marston Mills Seaplane Base)
 
Road maps at: MapQuest Bing Google
 
Aerial photo
No photo
 
Sectional chart

 
Airport distance calculator
Flying to Marston Mills Seaplane Base? Find the distance to fly.

From to MA12

Sunrise and sunset
Times for 21-Nov-2019
 Local
(UTC-5)
 Zulu
(UTC)
Morning civil twilight06:0911:09
Sunrise06:3911:39
Sunset16:1621:16
Evening civil twilight16:4621:46

Current date and time
Zulu (UTC)  22-Nov-2019 02:26:48
Local (UTC-5)  21-Nov-2019 21:26:48
 
METAR
KFMH 
5nm SW 
220155Z 14005KT 10SM CLR M01/M01 A3006
KHYA 
7nm E 
220156Z 00000KT 10SM CLR M01/M02 A3005 RMK AO2 SLP178 T10061022
KMVY 
18nm SW 
220153Z AUTO 11003KT 10SM CLR 01/M01 A3006 RMK AO2 SLP179 T00061011
KCQX 
19nm E 
220152Z AUTO 00000KT 10SM CLR 02/01 A3008 RMK AO2 SLP188 T00170006
TAF
KFMH 
5nm SW 
211736Z 2118/2218 35008KT P6SM SKC FM212300 00000KT P6SM FEW250 FM220500 21003KT P6SM BKN120 FM221200 22012G24KT P6SM BKN060 FM221400 22014G28KT P6SM BKN060 FM221600 23016G29KT P6SM VCSH BKN050
KHYA 
7nm E 
211736Z 2118/2218 34011G18KT P6SM SCT025 TEMPO 2118/2119 BKN025 FM212100 32003KT P6SM SKC FM212300 30004KT P6SM FEW250 FM220400 21004KT P6SM SCT150 FM221200 21012G25KT P6SM BKN070 FM221600 22017G31KT P6SM VCSH BKN050
NOTAMs
Click for the latest NOTAMs
NOTAMs are issued by the DoD/FAA and will open in a separate window not controlled by AirNav.

 

 
 

Would you like to see your business listed on this page?

 If your business provides an interesting product or service to pilots, flight crews, aircraft, or users of the Marston Mills Seaplane Base, you should consider listing it here.  To start the listing process, click on the button below
 
Add a business
 

Other Pages about Marston Mills Seaplane Base

Update a link
 
Copyright © AirNav, LLC. All rights reserved. Privacy Policy  Contact